createdAt,value
2022-08-07T00:02:41.180Z,101355.81
2022-08-07T00:05:07.596Z,101353.34
2022-08-07T00:07:40.180Z,101350.91
2022-08-07T00:10:27.271Z,101345.69
2022-08-07T00:13:02.148Z,101350.50
2022-08-07T00:15:46.849Z,101351.72
2022-08-07T00:18:24.357Z,101344.91
2022-08-07T00:20:54.872Z,101340.84
2022-08-07T00:23:28.304Z,101344.69
2022-08-07T00:26:13.093Z,101330.06
2022-08-07T00:28:55.626Z,101330.44
2022-08-07T00:31:38.132Z,101332.50
2022-08-07T00:34:11.299Z,101332.63
2022-08-07T00:36:43.345Z,101328.38
2022-08-07T00:39:16.551Z,101332.88
2022-08-07T00:42:01.813Z,101337.44
2022-08-07T00:44:34.885Z,101329.81
2022-08-07T00:47:06.438Z,101328.19
2022-08-07T00:50:21.453Z,101328.47
2022-08-07T00:52:35.148Z,101326.00
2022-08-07T00:55:10.570Z,101326.78
2022-08-07T00:57:44.400Z,101323.06
2022-08-07T01:00:26.488Z,101319.28
2022-08-07T01:02:56.730Z,101314.56
2022-08-07T01:05:28.785Z,101316.16
2022-08-07T01:07:59.605Z,101313.50
2022-08-07T01:10:29.504Z,101309.13
2022-08-07T01:13:03.734Z,101309.19
2022-08-07T01:16:01.160Z,101309.38
2022-08-07T01:18:25.073Z,101307.81
2022-08-07T01:20:59.765Z,101300.81
2022-08-07T01:23:39.448Z,101301.00
2022-08-07T01:26:16.693Z,101300.31
2022-08-07T01:28:51.512Z,101309.28
2022-08-07T01:31:42.436Z,101306.81
2022-08-07T01:34:15.106Z,101307.75
2022-08-07T01:36:51.519Z,101302.41
2022-08-07T01:39:40.702Z,101299.81
2022-08-07T01:42:39.772Z,101293.63
2022-08-07T01:45:22.808Z,101286.47
2022-08-07T01:48:30.133Z,101288.19
2022-08-07T01:50:52.464Z,101289.19
2022-08-07T01:54:00.775Z,101294.63
2022-08-07T01:56:29.721Z,101297.53
2022-08-07T01:59:06.211Z,101296.84
2022-08-07T02:02:02.298Z,101294.19
2022-08-07T02:04:31.789Z,101299.34
2022-08-07T02:07:06.402Z,101296.59
2022-08-07T02:09:53.034Z,101293.06
2022-08-07T02:12:31.437Z,101295.72
2022-08-07T02:15:05.857Z,101294.81
2022-08-07T02:17:49.461Z,101291.22
2022-08-07T02:20:23.922Z,101296.53
2022-08-07T02:23:01.594Z,101288.44
2022-08-07T02:26:26.561Z,101282.97
2022-08-07T02:28:27.293Z,101284.63
2022-08-07T02:31:28.156Z,101283.56
2022-08-07T02:34:01.815Z,101281.81
2022-08-07T02:36:35.650Z,101288.91
2022-08-07T02:39:17.022Z,101285.41
2022-08-07T02:42:10.137Z,101285.41
2022-08-07T02:44:49.913Z,101275.69
2022-08-07T02:47:25.039Z,101282.00
2022-08-07T02:50:07.544Z,101278.47
2022-08-07T02:52:48.711Z,101288.31
2022-08-07T02:55:27.601Z,101278.63
2022-08-07T02:58:02.962Z,101286.69
2022-08-07T03:00:39.204Z,101278.78
2022-08-07T03:03:13.543Z,101278.06
2022-08-07T03:05:53.660Z,101279.91
2022-08-07T03:08:26.907Z,101285.34
2022-08-07T03:11:00.965Z,101277.44
2022-08-07T03:13:38.810Z,101282.81
2022-08-07T03:16:22.859Z,101277.72
2022-08-07T03:18:57.785Z,101285.84
2022-08-07T03:21:27.886Z,101284.28
2022-08-07T03:24:18.888Z,101282.78
2022-08-07T03:26:58.479Z,101280.50
2022-08-07T03:29:31.108Z,101280.91
2022-08-07T03:32:13.152Z,101287.53
2022-08-07T03:34:47.447Z,101278.28
2022-08-07T03:37:37.340Z,101286.66
2022-08-07T03:40:17.092Z,101287.91
2022-08-07T03:42:49.333Z,101282.94
2022-08-07T03:45:29.838Z,101280.63
2022-08-07T03:48:10.069Z,101273.94
2022-08-07T03:50:43.236Z,101278.66
2022-08-07T03:53:50.130Z,101276.28
2022-08-07T03:56:32.542Z,101278.38
2022-08-07T03:59:10.030Z,101284.00
2022-08-07T04:01:47.361Z,101278.94
2022-08-07T04:04:23.234Z,101283.56
2022-08-07T04:06:56.848Z,101282.94
2022-08-07T04:09:45.135Z,101280.50
2022-08-07T04:12:27.691Z,101286.88
2022-08-07T04:15:00.392Z,101285.19
2022-08-07T04:18:57.785Z,101280.91
2022-08-07T04:20:26.884Z,101280.97
2022-08-07T04:23:01.378Z,101281.97
2022-08-07T04:25:39.008Z,101289.94
2022-08-07T04:28:13.440Z,101289.13
2022-08-07T04:30:55.481Z,101288.28
2022-08-07T04:33:31.504Z,101284.75
2022-08-07T04:36:09.148Z,101290.03
2022-08-07T04:38:40.242Z,101295.34
2022-08-07T04:41:18.063Z,101300.59
2022-08-07T04:44:12.056Z,101302.34
2022-08-07T04:46:59.659Z,101297.88
2022-08-07T04:49:58.120Z,101301.31
2022-08-07T04:52:50.907Z,101306.56
2022-08-07T04:58:09.899Z,101302.91
2022-08-07T04:58:42.329Z,101300.13
2022-08-07T05:01:18.298Z,101294.69
2022-08-07T05:04:07.353Z,101296.31
2022-08-07T05:06:51.682Z,101293.47
2022-08-07T05:09:45.796Z,101294.13
2022-08-07T05:12:26.746Z,101299.19
2022-08-07T05:15:04.410Z,101306.91
2022-08-07T05:17:52.839Z,101302.09
2022-08-07T05:20:27.832Z,101313.13
2022-08-07T05:23:03.876Z,101311.88
2022-08-07T05:26:11.884Z,101302.63
2022-08-07T05:28:28.127Z,101308.50
2022-08-07T05:30:59.982Z,101309.03
2022-08-07T05:33:31.642Z,101314.09
2022-08-07T05:36:06.542Z,101307.56
2022-08-07T05:39:00.729Z,101315.22
2022-08-07T05:42:02.959Z,101323.69
2022-08-07T05:44:29.462Z,101318.91
2022-08-07T05:47:02.152Z,101321.22
2022-08-07T05:49:52.240Z,101326.88
2022-08-07T05:52:32.292Z,101322.94
2022-08-07T05:55:10.733Z,101321.59
2022-08-07T05:57:46.551Z,101329.88
2022-08-07T06:00:18.537Z,101328.41
2022-08-07T06:02:57.519Z,101335.00
2022-08-07T06:05:31.440Z,101320.25
2022-08-07T06:08:29.998Z,101329.38
2022-08-07T06:10:57.616Z,101325.13
2022-08-07T06:14:10.489Z,101331.53
2022-08-07T06:16:21.616Z,101338.66
2022-08-07T06:18:55.764Z,101331.56
2022-08-07T06:22:14.499Z,101337.72
2022-08-07T06:24:37.549Z,101334.88
2022-08-07T06:27:08.006Z,101333.34
2022-08-07T06:29:40.843Z,101320.81
2022-08-07T06:32:13.281Z,101330.53
2022-08-07T06:34:45.245Z,101321.88
2022-08-07T06:37:17.269Z,101327.00
2022-08-07T06:40:15.903Z,101315.56
2022-08-07T06:42:41.141Z,101307.22
2022-08-07T06:45:18.575Z,101304.22
2022-08-07T06:47:57.339Z,101303.81
2022-08-07T06:50:30.671Z,101305.56
2022-08-07T06:53:04.129Z,101305.56
2022-08-07T06:55:59.906Z,101302.53
2022-08-07T06:58:27.637Z,101295.22
2022-08-07T07:01:11.183Z,101301.94
2022-08-07T07:03:49.864Z,101303.84
2022-08-07T07:06:26.599Z,101302.78
2022-08-07T07:08:58.060Z,101301.06
2022-08-07T07:12:08.161Z,101298.81
2022-08-07T07:14:18.570Z,101303.41
2022-08-07T07:16:56.201Z,101295.47
2022-08-07T07:19:57.877Z,101295.09
2022-08-07T07:22:39.928Z,101297.97
2022-08-07T07:26:30.793Z,101291.75
2022-08-07T07:28:07.761Z,101297.31
2022-08-07T07:30:58.343Z,101292.81
2022-08-07T07:33:31.626Z,101296.78
2022-08-07T07:36:04.629Z,101297.09
2022-08-07T07:38:36.226Z,101300.34
2022-08-07T07:41:08.827Z,101288.75
2022-08-07T07:44:14.019Z,101293.75
2022-08-07T07:46:40.067Z,101293.31
2022-08-07T07:50:34.693Z,101289.84
2022-08-07T07:52:16.119Z,101294.28
2022-08-07T07:54:50.744Z,101286.91
2022-08-07T07:57:44.108Z,101283.34
2022-08-07T08:00:28.909Z,101286.56
2022-08-07T08:03:05.354Z,101286.81
2022-08-07T08:05:54.577Z,101280.50
2022-08-07T08:08:34.835Z,101279.28
2022-08-07T08:11:09.259Z,101272.47
2022-08-07T08:13:54.505Z,101270.84
2022-08-07T08:16:31.326Z,101275.16
2022-08-07T08:19:09.779Z,101260.22
2022-08-07T08:22:08.119Z,101268.41
2022-08-07T08:25:03.236Z,101258.81
2022-08-07T08:27:56.669Z,101263.69
2022-08-07T08:30:28.598Z,101256.97
2022-08-07T08:33:02.275Z,101268.25
2022-08-07T08:35:39.507Z,101266.47
2022-08-07T08:38:21.801Z,101262.22
2022-08-07T08:41:04.734Z,101263.28
2022-08-07T08:43:42.994Z,101268.38
2022-08-07T08:46:24.369Z,101256.63
2022-08-07T08:49:00.741Z,101249.88
2022-08-07T08:52:13.200Z,101260.53
2022-08-07T08:54:29.511Z,101244.44
2022-08-07T08:57:01.016Z,101244.84
2022-08-07T08:59:42.190Z,101240.28
2022-08-07T09:02:36.609Z,101239.91
2022-08-07T09:05:16.885Z,101238.06
2022-08-07T09:07:57.973Z,101233.38
2022-08-07T09:10:37.066Z,101235.88
2022-08-07T09:13:37.120Z,101230.59
2022-08-07T09:16:23.066Z,101232.81
2022-08-07T09:19:53.239Z,101226.09
2022-08-07T09:24:27.291Z,101226.03
2022-08-07T09:25:14.468Z,101220.41
2022-08-07T09:28:02.006Z,101221.59
2022-08-07T09:30:40.597Z,101216.34
2022-08-07T09:33:41.051Z,101221.44
2022-08-07T09:36:14.906Z,101205.78
2022-08-07T09:38:49.957Z,101212.69
2022-08-07T09:41:36.152Z,101215.75
2022-08-07T09:44:32.966Z,101217.44
2022-08-07T09:47:51.947Z,101213.16
2022-08-07T09:50:20.113Z,101219.81
2022-08-07T09:52:53.737Z,101209.16
2022-08-07T09:55:29.454Z,101205.38
2022-08-07T09:58:32.358Z,101198.81
2022-08-07T10:01:50.542Z,101209.38
2022-08-07T10:04:28.315Z,101205.19
2022-08-07T10:07:26.201Z,101194.81
2022-08-07T10:10:22.874Z,101185.81
2022-08-07T10:13:02.245Z,101183.13
2022-08-07T10:15:44.391Z,101178.84
2022-08-07T10:18:33.784Z,101190.91
2022-08-07T10:22:14.905Z,101175.47
2022-08-07T10:24:29.494Z,101176.53
2022-08-07T10:27:13.957Z,101182.81
2022-08-07T10:30:06.339Z,101176.69
2022-08-07T10:32:52.585Z,101182.59
2022-08-07T10:35:55.205Z,101177.59
2022-08-07T10:38:48.458Z,101175.53
2022-08-07T10:41:47.027Z,101171.56
2022-08-07T10:44:37.792Z,101168.59
2022-08-07T10:47:52.949Z,101165.13
2022-08-07T10:50:30.583Z,101158.31
2022-08-07T10:53:08.301Z,101155.22
2022-08-07T10:55:45.985Z,101146.72
2022-08-07T10:58:33.183Z,101144.53
2022-08-07T11:01:35.143Z,101146.44
2022-08-07T11:04:31.802Z,101144.63
2022-08-07T11:07:24.845Z,101134.72
2022-08-07T11:10:10.185Z,101142.06
2022-08-07T11:12:49.259Z,101136.06
2022-08-07T11:15:33.673Z,101134.56
2022-08-07T11:18:09.587Z,101137.41
2022-08-07T11:20:49.238Z,101122.75
2022-08-07T11:23:30.672Z,101119.03
2022-08-07T11:26:13.428Z,101121.75
2022-08-07T11:28:55.409Z,101130.31
2022-08-07T11:31:30.506Z,101120.47
2022-08-07T11:34:11.968Z,101105.78
2022-08-07T11:36:53.213Z,101112.78
2022-08-07T11:40:00.303Z,101106.19
2022-08-07T11:42:42.773Z,101101.34
2022-08-07T11:45:30.032Z,101105.22
2022-08-07T11:48:29.365Z,101099.94
2022-08-07T11:51:40.831Z,101103.63
2022-08-07T11:54:12.369Z,101104.75
2022-08-07T11:56:59.983Z,101095.91
2022-08-07T12:00:11.339Z,101096.34
2022-08-07T12:03:41.692Z,101093.34
2022-08-07T12:06:37.623Z,101088.34
2022-08-07T12:09:16.526Z,101092.91
2022-08-07T12:12:09.669Z,101099.31
2022-08-07T12:14:55.500Z,101093.06
2022-08-07T12:17:34.201Z,101097.59
2022-08-07T12:20:18.511Z,101093.00
2022-08-07T12:24:04.951Z,101092.84
2022-08-07T12:26:29.086Z,101097.84
2022-08-07T12:29:08.496Z,101089.72
2022-08-07T12:32:01.817Z,101087.72
2022-08-07T12:34:33.209Z,101085.31
2022-08-07T12:37:08.573Z,101080.19
2022-08-07T12:39:50.704Z,101082.28
2022-08-07T12:42:27.797Z,101074.31
2022-08-07T12:45:04.461Z,101075.91
2022-08-07T12:47:43.998Z,101080.56
2022-08-07T12:50:39.052Z,101073.59
2022-08-07T12:53:17.969Z,101072.31
2022-08-07T12:56:02.102Z,101072.06
2022-08-07T12:58:37.603Z,101069.59
2022-08-07T13:01:21.996Z,101067.47
2022-08-07T13:04:31.578Z,101074.03
2022-08-07T13:08:11.511Z,101058.22
2022-08-07T13:10:39.368Z,101055.25
2022-08-07T13:13:48.409Z,101057.41
2022-08-07T13:16:23.912Z,101051.41
2022-08-07T13:19:03.926Z,101052.16
2022-08-07T13:21:51.787Z,101049.69
2022-08-07T13:24:29.328Z,101035.75
2022-08-07T13:27:08.433Z,101041.16
2022-08-07T13:29:46.874Z,101044.16
2022-08-07T13:32:32.309Z,101038.31
2022-08-07T13:35:10.248Z,101040.75
2022-08-07T13:37:59.105Z,101036.06
2022-08-07T13:40:41.969Z,101030.34
2022-08-07T13:43:16.367Z,101024.94
2022-08-07T13:46:21.528Z,101028.63
2022-08-07T13:48:41.793Z,101025.22
2022-08-07T13:51:28.058Z,101022.78
2022-08-07T13:54:23.833Z,101024.34
2022-08-07T13:56:59.692Z,101023.50
2022-08-07T13:59:33.395Z,101015.09
2022-08-07T14:02:08.519Z,101014.09
2022-08-07T14:04:54.446Z,101010.09
2022-08-07T14:07:27.960Z,101011.38
2022-08-07T14:10:17.377Z,101007.53
2022-08-07T14:12:56.039Z,101008.13
2022-08-07T14:15:31.613Z,100998.41
2022-08-07T14:18:27.964Z,100994.13
2022-08-07T14:21:08.134Z,101000.41
2022-08-07T14:24:01.311Z,101000.41
2022-08-07T14:26:38.255Z,100993.41
2022-08-07T14:32:04.094Z,100996.56
2022-08-07T14:34:45.788Z,101003.25
2022-08-07T14:37:23.790Z,100992.44
2022-08-07T14:40:16.979Z,100996.13
2022-08-07T14:43:55.302Z,100988.00
2022-08-07T14:45:51.786Z,100985.16
2022-08-07T14:48:29.075Z,100981.59
2022-08-07T14:51:04.934Z,100980.75
2022-08-07T14:54:03.626Z,100981.59
2022-08-07T14:56:35.168Z,100991.59
2022-08-07T14:59:14.030Z,100988.59
2022-08-07T15:01:58.240Z,100977.63
2022-08-07T15:04:29.131Z,100980.59
2022-08-07T15:09:59.031Z,100982.75
2022-08-07T15:12:35.157Z,100974.50
2022-08-07T15:15:09.261Z,100977.63
2022-08-07T15:17:56.970Z,100981.03
2022-08-07T15:20:54.643Z,100987.88
2022-08-07T15:25:16.312Z,100978.75
2022-08-07T15:30:08.644Z,100978.47
2022-08-07T15:34:57.108Z,100974.91
2022-08-07T15:37:29.922Z,100975.19
2022-08-07T15:43:52.812Z,100966.22
2022-08-07T15:46:32.400Z,100963.66
2022-08-07T15:49:14.622Z,100969.91
2022-08-07T15:54:29.344Z,100960.22
2022-08-07T15:57:04.708Z,100967.50
2022-08-07T15:59:44.235Z,100959.69
2022-08-07T16:02:17.129Z,100953.81
2022-08-07T16:04:49.894Z,100959.69
2022-08-07T16:08:31.753Z,100957.38
2022-08-07T16:10:15.457Z,100959.66
2022-08-07T16:13:01.025Z,100959.22
2022-08-07T16:15:57.303Z,100962.31
2022-08-07T16:18:49.708Z,100952.75
2022-08-07T16:22:01.262Z,100948.38
2022-08-07T16:24:34.563Z,100952.06
2022-08-07T16:27:18.610Z,100943.06
2022-08-07T16:30:30.080Z,100942.97
2022-08-07T16:34:01.859Z,100953.66
2022-08-07T16:36:19.633Z,100946.81
2022-08-07T16:39:17.743Z,100943.38
2022-08-07T16:42:12.445Z,100952.91
2022-08-07T16:46:21.157Z,100956.03
2022-08-07T16:48:02.732Z,100939.22
2022-08-07T16:51:20.730Z,100937.94
2022-08-07T16:54:08.812Z,100948.00
2022-08-07T16:56:53.232Z,100943.03
2022-08-07T16:59:46.951Z,100947.00
2022-08-07T17:02:52.170Z,100940.88
2022-08-07T17:06:18.971Z,100942.00
2022-08-07T17:09:08.701Z,100944.97
2022-08-07T17:12:01.917Z,100945.25
2022-08-07T17:14:28.258Z,100947.38
2022-08-07T17:17:01.086Z,100941.97
2022-08-07T17:20:02.136Z,100944.66
2022-08-07T17:22:38.564Z,100944.66
2022-08-07T17:25:18.547Z,100941.28
2022-08-07T17:28:02.028Z,100945.94
2022-08-07T17:30:58.596Z,100946.38
2022-08-07T17:33:39.134Z,100946.03
2022-08-07T17:36:26.789Z,100940.44
2022-08-07T17:39:10.629Z,100941.97
2022-08-07T17:42:03.843Z,100942.63
2022-08-07T17:44:45.613Z,100944.19
2022-08-07T17:47:38.036Z,100944.69
2022-08-07T17:50:16.720Z,100942.41
2022-08-07T17:52:58.932Z,100947.06
2022-08-07T17:55:55.955Z,100943.78
2022-08-07T17:58:34.736Z,100943.19
2022-08-07T18:01:21.004Z,100942.03
2022-08-07T18:04:07.076Z,100942.81
2022-08-07T18:06:43.234Z,100943.59
2022-08-07T18:10:05.249Z,100944.34
2022-08-07T18:12:28.448Z,100944.53
2022-08-07T18:15:08.388Z,100947.03
2022-08-07T18:18:39.940Z,100954.78
2022-08-07T18:21:09.541Z,100953.84
2022-08-07T18:23:43.771Z,100964.50
2022-08-07T18:26:23.450Z,100959.91
2022-08-07T18:30:04.651Z,100955.38
2022-08-07T18:32:08.355Z,100964.56
2022-08-07T18:35:00.689Z,100966.91
2022-08-07T18:38:55.357Z,100968.47
2022-08-07T18:40:50.189Z,100969.13
2022-08-07T18:43:42.781Z,100977.03
2022-08-07T18:46:25.295Z,100986.72
2022-08-07T18:50:30.966Z,100982.94
2022-08-07T18:52:38.173Z,100983.66
2022-08-07T18:54:59.766Z,100980.69
2022-08-07T18:57:59.588Z,100993.91
2022-08-07T19:00:55.092Z,100997.38
2022-08-07T19:03:38.753Z,101003.47
2022-08-07T19:06:16.446Z,101000.50
2022-08-07T19:08:50.318Z,101001.19
2022-08-07T19:11:36.639Z,101010.81
2022-08-07T19:14:19.777Z,101012.25
2022-08-07T19:17:04.571Z,101018.09
2022-08-07T19:19:42.248Z,101015.94
2022-08-07T19:22:19.386Z,101017.50
2022-08-07T19:25:06.693Z,101017.31
2022-08-07T19:28:58.069Z,101030.31
2022-08-07T19:31:03.916Z,101033.66
2022-08-07T19:33:33.363Z,101032.53
2022-08-07T19:36:09.071Z,101033.16
2022-08-07T19:38:53.167Z,101040.91
2022-08-07T19:41:44.079Z,101037.91
2022-08-07T19:44:21.308Z,101045.56
2022-08-07T19:46:57.986Z,101046.06
2022-08-07T19:49:58.135Z,101050.16
2022-08-07T19:52:27.697Z,101055.31
2022-08-07T19:54:58.344Z,101057.78
2022-08-07T19:58:02.036Z,101061.78
2022-08-07T20:00:28.118Z,101051.72
2022-08-07T20:03:03.784Z,101062.00
2022-08-07T20:05:59.820Z,101063.28
2022-08-07T20:08:30.256Z,101061.31
2022-08-07T20:11:04.010Z,101060.09
2022-08-07T20:13:45.765Z,101059.53
2022-08-07T20:16:35.670Z,101068.75
2022-08-07T20:19:10.021Z,101058.44
2022-08-07T20:21:41.839Z,101065.06
2022-08-07T20:24:22.479Z,101061.91
2022-08-07T20:26:55.847Z,101059.63
2022-08-07T20:29:48.243Z,101067.19
2022-08-07T20:32:25.652Z,101069.44
2022-08-07T20:34:57.729Z,101069.63
2022-08-07T20:37:33.791Z,101070.59
2022-08-07T20:40:32.613Z,101071.53
2022-08-07T20:42:59.177Z,101074.31
2022-08-07T20:46:28.155Z,101077.84
2022-08-07T20:48:30.327Z,101075.34
2022-08-07T20:51:02.333Z,101079.00
2022-08-07T20:54:04.171Z,101066.53
2022-08-07T20:56:32.249Z,101079.28
2022-08-07T20:59:06.064Z,101086.66
2022-08-07T21:01:58.417Z,101083.97
2022-08-07T21:04:31.816Z,101081.28
2022-08-07T21:07:03.888Z,101087.50
2022-08-07T21:09:51.573Z,101090.28
2022-08-07T21:12:30.923Z,101073.47
2022-08-07T21:15:03.578Z,101070.00
2022-08-07T21:18:06.246Z,101087.91
2022-08-07T21:20:29.845Z,101085.50
2022-08-07T21:23:08.580Z,101083.91
2022-08-07T21:25:56.178Z,101080.53
2022-08-07T21:28:49.433Z,101084.38
2022-08-07T21:31:49.803Z,101077.47
2022-08-07T21:34:19.193Z,101083.22
2022-08-07T21:36:54.554Z,101084.34
2022-08-07T21:39:46.340Z,101089.06
2022-08-07T21:42:42.623Z,101089.41
2022-08-07T21:46:03.416Z,101088.84
2022-08-07T21:48:27.765Z,101096.31
2022-08-07T21:51:08.194Z,101093.13
2022-08-07T21:53:54.054Z,101092.47
2022-08-07T21:56:36.498Z,101097.13
2022-08-07T21:59:14.194Z,101098.25
2022-08-07T22:02:07.418Z,101104.69
2022-08-07T22:04:53.775Z,101105.88
2022-08-07T22:07:31.623Z,101104.34
2022-08-07T22:10:20.101Z,101096.50
2022-08-07T22:12:54.448Z,101103.84
2022-08-07T22:16:43.804Z,101105.03
2022-08-07T22:18:25.469Z,101101.97
2022-08-07T22:21:01.444Z,101106.75
2022-08-07T22:23:40.270Z,101097.31
2022-08-07T22:26:18.025Z,101100.97
2022-08-07T22:28:53.613Z,101102.00
2022-08-07T22:31:56.421Z,101095.13
2022-08-07T22:34:33.194Z,101097.28
2022-08-07T22:37:12.477Z,101098.41
2022-08-07T22:39:51.858Z,101095.88
2022-08-07T22:42:25.784Z,101105.81
2022-08-07T22:44:59.939Z,101104.97
2022-08-07T22:47:53.228Z,101096.84
2022-08-07T22:50:46.184Z,101105.63
2022-08-07T22:54:06.926Z,101112.63
2022-08-07T22:56:24.917Z,101108.13
2022-08-07T22:59:33.947Z,101104.59
2022-08-07T23:02:12.405Z,101109.25
2022-08-07T23:04:57.903Z,101110.31
2022-08-07T23:07:56.653Z,101106.25
2022-08-07T23:10:41.864Z,101113.59
2022-08-07T23:13:49.229Z,101108.41
2022-08-07T23:16:48.334Z,101110.50
2022-08-07T23:19:51.346Z,101114.09
2022-08-07T23:22:32.435Z,101114.19
2022-08-07T23:25:17.991Z,101111.44
2022-08-07T23:28:21.026Z,101109.59
2022-08-07T23:31:11.713Z,101111.53
2022-08-07T23:34:33.967Z,101109.00
2022-08-07T23:37:17.868Z,101116.34
2022-08-07T23:39:44.666Z,101113.84
2022-08-07T23:42:22.026Z,101111.22
2022-08-07T23:45:33.285Z,101101.34
2022-08-07T23:48:29.414Z,101106.59
2022-08-07T23:51:03.019Z,101103.16
2022-08-07T23:53:51.588Z,101110.38
2022-08-07T23:56:26.708Z,101097.19
2022-08-07T23:59:10.652Z,101100.81
